Terminal Aerodrome Forecast
Issued by NWS

Home | Current Version | Previous Version | Text Only | Print | Product List | Glossary On
Versions: 1 2 3 4 5 6 7 8 9 10 11 12 13 14 15 16 17 18 19 20
000
FTUS43 KMQT 291726
TAFIWD
TAF
KIWD 291726Z 2918/3018 24007KT 5SM -SHRA BKN015
     FM292100 31007KT 5SM -RA BR OVC012
     FM300000 33005KT 5SM -RA BR OVC008
     FM300400 35006KT P6SM OVC015
     FM300900 36007KT P6SM BKN050
     FM301200 01009KT P6SM SCT050
      AMD LTD TO CLD VIS AND WIND=

USA.gov is the U.S. government's official web portal to all federal, state and local government web resources and services.